Oxford, New Jersey
Current Conditions -  °F | °C
As of 4:53 PM on Friday 31 Oct 2014 (Local Time) from KSMQ Reporting Station
Overcast Overcast  
Wind Chill: 52°   Ceiling: 4700
Heat Index: 52°   Visibility: 10mi
Dew Point: 34°   Wind: 5mph
Humidity: 50%   Direction: 30°NNE
Pressure: 29.88"   Gusts: NA
Location:  40.81°N, 75°W
Report Text: KSMQ 312053Z AUTO 03004KT 10SM OVC047 11/01 A2988 RMK AO2 SLP121 T01110011 56011
Loading
Personal Weather Stations






























Interactive Weather Map
Tropical Storm Tracking
New forecast layout! Learn more

10-Day Weather Forecast

Advertisements
Track Severe Weather on mobile